This is the latest recevied weather packets stored in our database for station/object CE3JSG-13. If no packets are shown the sender has not sent any weather packets the latest 10 day(s).
| Time | Temp. | Humidity | Pressure | Rain* | Wind** | Luminosity | Snow |
|---|---|---|---|---|---|---|---|
| 1777576156 | 26.11° C | 36% | 1008.5 hPa | - | - | - | - |
| 1777575735 | 26.11° C | 36% | 1009 hPa | - | - | - | - |
| 1777575315 | 26.11° C | 36% | 1008.8 hPa | - | - | - | - |
| 1777574895 | 26.11° C | 36% | 1009.8 hPa | - | - | - | - |
| 1777574475 | 26.67° C | 34% | 1007.8 hPa | - | - | - | - |
| 1777574055 | 26.11° C | 35% | 1009.7 hPa | - | - | - | - |
| 1777573635 | 26.11° C | 34% | 1009.2 hPa | - | - | - | - |
| 1777573215 | 26.11° C | 34% | 1009 hPa | - | - | - | - |
| 1777572795 | 26.11° C | 35% | 1007.5 hPa | - | - | - | - |
| 1777572375 | 25.56° C | 37% | 1010.7 hPa | - | - | - | - |
| 1777571955 | 26.11° C | 36% | 1008.8 hPa | - | - | - | - |
| 1777571536 | 26.11° C | 37% | 1009.5 hPa | - | - | - | - |
| 1777571116 | 26.11° C | 37% | 1008.5 hPa | - | - | - | - |
| 1777570695 | 25.56° C | 37% | 1009.9 hPa | - | - | - | - |
| 1777570275 | 25.56° C | 38% | 1009 hPa | - | - | - | - |
| 1777569856 | 25° C | 39% | 1010.6 hPa | - | - | - | - |
| 1777569435 | 25.56° C | 38% | 1009.9 hPa | - | - | - | - |
| 1777569015 | 25.56° C | 38% | 1009.9 hPa | - | - | - | - |
| 1777568596 | 25.56° C | 37% | 1009.8 hPa | - | - | - | - |
| 1777568175 | 25° C | 38% | 1010 hPa | - | - | - | - |
| 1777567755 | 25° C | 38% | 1009.5 hPa | - | - | - | - |
| 1777567335 | 24.44° C | 38% | 1010.9 hPa | - | - | - | - |
| 1777566915 | 25° C | 37% | 1010.7 hPa | - | - | - | - |
| 1777566495 | 25° C | 37% | 1009.5 hPa | - | - | - | - |
| 1777566075 | 24.44° C | 38% | 1010.8 hPa | - | - | - | - |
* Rain since midnight (hover to see other rain measurements)
** Current wind speed in m/s (hover to see current wind gust speed)